Time;durP1;ratioP1;P1;durP2;ratioP2;P2;SDS_P1;SDS_P2;PMS_P1;PMS_P2;Temp;Humidity;BMP_temperature;BMP_pressure;BME280_temperature;BME280_humidity;BME280_pressure;Samples;Min_cycle;Max_cycle;Signal;HPM_P1;HPM_P2
2023/03/05 00:00:50;;;;;;;;;;;;;;;;;;5015441;28;7344;-55
2023/03/05 00:03:16;;;;;;;;;;;;;;;;;;5014480;28;7144;-54
2023/03/05 00:05:42;;;;;;;;;;;;;;;;;;5014510;28;7043;-50
2023/03/05 00:08:07;;;;;;;;;;;;;;;;;;5014262;28;8223;-50
2023/03/05 00:10:33;;;;;;;;;;;;;;;;;;5011950;28;7271;-51
2023/03/05 00:12:58;;;;;;;;;;;;;;;;;;5017516;28;7125;-53
2023/03/05 00:18:27;;;;;;;;;;;;;;;;;;5018062;28;6677;-53
2023/03/05 00:24:16;;;;;;;;;;;;;;;;;;5017823;28;6686;-53
2023/03/05 00:26:44;;;;;;;;;;;;;;;;;;5017967;28;7374;-51
2023/03/05 00:29:13;;;;;;;;;;;;;;;;;;5017620;28;7037;-53
2023/03/05 00:34:42;;;;;;;;;;;;;;;;;;5017634;28;6920;-51
2023/03/05 00:37:08;;;;;;;;;;;;;;;;;;5017801;28;7171;-53
2023/03/05 00:39:33;;;;;;;;;;;;;;;;;;5017714;28;7098;-53
2023/03/05 00:45:04;;;;;;;;;;;;;;;;;;5017403;28;6913;-51
2023/03/05 00:47:30;;;;;;;;;;;;;;;;;;5017392;28;7154;-52
2023/03/05 00:49:55;;;;;;;;;;;;;;;;;;5017469;28;7101;-55
2023/03/05 00:52:21;;;;;;;;;;;;;;;;;;5017115;28;7065;-51
2023/03/05 00:54:46;;;;;;;;;;;;;;;;;;5017176;28;7363;-52
2023/03/05 00:57:35;;;;;;;;;;;;;;;;;;5018255;28;7167;-52
2023/03/05 01:00:04;;;;;;;;;;;;;;;;;;5017006;28;8190;-51
2023/03/05 01:02:30;;;;;;;;;;;;;;;;;;5017344;28;7145;-54
2023/03/05 01:05:16;;;;;;;;;;;;;;;;;;5017213;28;7110;-54
2023/03/05 01:07:41;;;;;;;;;;;;;;;;;;5017316;28;6955;-52
2023/03/05 01:10:07;;;;;;;;;;;;;;;;;;5016889;28;7163;-52
2023/03/05 01:13:06;;;;;;;;;;;;;;;;;;5017138;28;7694;-52
2023/03/05 01:15:32;;;;;;;;;;;;;;;;;;5017126;28;7102;-53
2023/03/05 01:17:58;;;;;;;;;;;;;;;;;;5017179;28;7086;-54
2023/03/05 01:20:36;;;;;;;;;;;;;;;;;;5017037;28;7167;-54
2023/03/05 01:23:02;;;;;;;;;;;;;;;;;;5016332;28;7190;-50
2023/03/05 01:25:27;;;;;;;;;;;;;;;;;;5016952;28;7122;-53
2023/03/05 01:30:56;;;;;;;;;;;;;;;;;;5016559;28;6940;-54
2023/03/05 01:33:21;;;;;;;;;;;;;;;;;;5016687;28;7389;-53
2023/03/05 01:35:48;;;;;;;;;;;;;;;;;;5016401;28;6931;-52
2023/03/05 01:38:15;;;;;;;;;;;;;;;;;;5016393;28;7019;-53
2023/03/05 01:40:41;;;;;;;;;;;;;;;;;;5016626;28;7369;-50
2023/03/05 01:43:27;;;;;;;;;;;;;;;;;;5016684;28;7369;-54
2023/03/05 01:46:11;;;;;;;;;;;;;;;;;;5015812;28;7025;-51
2023/03/05 01:48:43;;;;;;;;;;;;;;;;;;5016588;28;7398;-51
2023/03/05 01:54:14;;;;;;;;;;;;;;;;;;5016170;28;6753;-53
2023/03/05 01:56:42;;;;;;;;;;;;;;;;;;4998624;28;7203;-53
2023/03/05 01:59:44;;;;;;;;;;;;;;;;;;5016029;28;7175;-51
2023/03/05 02:02:09;;;;;;;;;;;;;;;;;;5016124;28;7226;-51
2023/03/05 02:04:40;;;;;;;;;;;;;;;;;;5016195;28;7104;-52
2023/03/05 02:07:06;;;;;;;;;;;;;;;;;;5016039;28;7068;-53
2023/03/05 02:09:46;;;;;;;;;;;;;;;;;;5016595;28;7170;-54
2023/03/05 02:12:13;;;;;;;;;;;;;;;;;;5015454;28;7520;-53
2023/03/05 02:14:41;;;;;;;;;;;;;;;;;;5015983;28;7000;-53
2023/03/05 02:17:09;;;;;;;;;;;;;;;;;;5015937;28;6941;-54
2023/03/05 02:22:26;;;;;;;;;;;;;;;;;;5015962;28;7003;-52
2023/03/05 02:24:52;;;;;;;;;;;;;;;;;;5015869;28;7200;-53
2023/03/05 02:27:23;;;;;;;;;;;;;;;;;;5016493;28;7486;-54
2023/03/05 02:32:51;;;;;;;;;;;;;;;;;;5015345;28;6693;-56
2023/03/05 02:38:20;;;;;;;;;;;;;;;;;;5015358;28;6685;-52
2023/03/05 02:40:46;;;;;;;;;;;;;;;;;;5016032;28;7307;-51
2023/03/05 02:43:17;;;;;;;;;;;;;;;;;;5015354;28;6893;-53
2023/03/05 02:45:43;;;;;;;;;;;;;;;;;;5015457;28;7273;-52
2023/03/05 02:48:08;;;;;;;;;;;;;;;;;;5015355;28;6963;-52
2023/03/05 02:50:52;;;;;;;;;;;;;;;;;;5015011;28;7196;-51
2023/03/05 02:53:17;;;;;;;;;;;;;;;;;;5014935;28;6991;-55
2023/03/05 02:55:56;;;;;;;;;;;;;;;;;;5015272;28;7400;-56
2023/03/05 02:58:22;;;;;;;;;;;;;;;;;;5015221;28;6943;-52
2023/03/05 03:01:10;;;;;;;;;;;;;;;;;;5015182;28;7218;-54
2023/03/05 03:03:36;;;;;;;;;;;;;;;;;;5015190;28;9167;-53
2023/03/05 03:06:02;;;;;;;;;;;;;;;;;;5015178;28;7035;-54
2023/03/05 03:08:27;;;;;;;;;;;;;;;;;;5015099;28;6962;-53
2023/03/05 03:13:56;;;;;;;;;;;;;;;;;;5015166;28;6685;-53
2023/03/05 03:19:24;;;;;;;;;;;;;;;;;;5014778;28;6976;-54
2023/03/05 03:24:59;;;;;;;;;;;;;;;;;;5014836;28;6999;-51
2023/03/05 03:27:25;;;;;;;;;;;;;;;;;;5014951;28;7022;-54
2023/03/05 03:29:50;;;;;;;;;;;;;;;;;;5014916;28;7355;-52
2023/03/05 03:35:19;;;;;;;;;;;;;;;;;;5014756;28;7107;-51
2023/03/05 03:37:44;;;;;;;;;;;;;;;;;;5014762;28;7363;-57
2023/03/05 03:46:24;;;;;;;;;;;;;;;;;;5015014;28;6685;-56
2023/03/05 03:48:50;;;;;;;;;;;;;;;;;;5018720;28;7250;-55
2023/03/05 03:51:16;;;;;;;;;;;;;;;;;;5018575;28;7245;-56
2023/03/05 03:53:41;;;;;;;;;;;;;;;;;;5018480;28;7232;-54
2023/03/05 03:56:07;;;;;;;;;;;;;;;;;;5018612;28;7142;-54
2023/03/05 03:58:44;;;;;;;;;;;;;;;;;;5018545;28;7185;-56
2023/03/05 04:01:10;;;;;;;;;;;;;;;;;;5019624;28;7130;-54
2023/03/05 04:03:36;;;;;;;;;;;;;;;;;;5018396;28;6877;-55
2023/03/05 04:06:24;;;;;;;;;;;;;;;;;;5018444;28;7332;-56
2023/03/05 04:08:49;;;;;;;;;;;;;;;;;;5018441;28;7191;-56
2023/03/05 04:11:15;;;;;;;;;;;;;;;;;;5015568;28;7037;-57
2023/03/05 04:16:44;;;;;;;;;;;;;;;;;;5017952;28;6987;-53
2023/03/05 04:19:09;;;;;;;;;;;;;;;;;;5018203;28;7135;-55
2023/03/05 04:22:04;;;;;;;;;;;;;;;;;;5018117;28;7132;-55
2023/03/05 04:24:30;;;;;;;;;;;;;;;;;;5019201;28;7512;-55
2023/03/05 04:26:55;;;;;;;;;;;;;;;;;;5017997;28;7253;-52
2023/03/05 04:32:28;;;;;;;;;;;;;;;;;;5017524;28;6936;-55
2023/03/05 04:35:02;;;;;;;;;;;;;;;;;;5018746;28;7102;-53
2023/03/05 04:37:28;;;;;;;;;;;;;;;;;;5017827;28;7120;-54
2023/03/05 04:39:53;;;;;;;;;;;;;;;;;;5017737;28;7570;-55
2023/03/05 04:42:33;;;;;;;;;;;;;;;;;;5018464;28;6939;-55
2023/03/05 04:44:59;;;;;;;;;;;;;;;;;;5017334;28;7485;-52
2023/03/05 04:47:35;;;;;;;;;;;;;;;;;;5018680;28;7011;-53
2023/03/05 04:50:03;;;;;;;;;;;;;;;;;;5017554;28;7416;-57
2023/03/05 04:52:28;;;;;;;;;;;;;;;;;;5017358;28;8159;-55
2023/03/05 04:55:31;;;;;;;;;;;;;;;;;;5017553;28;7422;-54
2023/03/05 04:57:57;;;;;;;;;;;;;;;;;;5016512;28;7232;-56
2023/03/05 05:00:25;;;;;;;;;;;;;;;;;;5017441;28;7077;-54
2023/03/05 05:05:55;;;;;;;;;;;;;;;;;;5017209;28;6689;-55
2023/03/05 05:08:21;;;;;;;;;;;;;;;;;;5017243;28;7186;-56
2023/03/05 05:11:08;;;;;;;;;;;;;;;;;;5017061;28;7051;-54
2023/03/05 05:13:34;;;;;;;;;;;;;;;;;;5017486;28;7564;-54
2023/03/05 05:18:50;;;;;;;;;;;;;;;;;;5017323;28;6765;-55
2023/03/05 05:24:18;;;;;;;;;;;;;;;;;;5017122;28;6900;-50
2023/03/05 05:26:43;;;;;;;;;;;;;;;;;;5016887;28;6942;-53
2023/03/05 05:29:28;;;;;;;;;;;;;;;;;;5016858;28;7180;-54
2023/03/05 05:31:55;;;;;;;;;;;;;;;;;;5016752;28;7363;-55
2023/03/05 05:34:20;;;;;;;;;;;;;;;;;;5017305;28;7041;-55
2023/03/05 05:36:46;;;;;;;;;;;;;;;;;;5016756;28;7190;-55
2023/03/05 05:39:11;;;;;;;;;;;;;;;;;;5016784;28;6984;-56
2023/03/05 05:41:51;;;;;;;;;;;;;;;;;;5016671;28;7135;-51
2023/03/05 05:44:16;;;;;;;;;;;;;;;;;;5016602;28;7182;-51
2023/03/05 05:46:42;;;;;;;;;;;;;;;;;;5016519;28;7374;-54
2023/03/05 05:49:07;;;;;;;;;;;;;;;;;;5016224;28;7126;-55
2023/03/05 05:54:37;;;;;;;;;;;;;;;;;;5016240;28;6736;-52
2023/03/05 05:57:02;;;;;;;;;;;;;;;;;;5016618;28;7185;-51
2023/03/05 05:59:28;;;;;;;;;;;;;;;;;;5016430;28;7318;-52
2023/03/05 06:01:54;;;;;;;;;;;;;;;;;;5001758;28;7183;-53
2023/03/05 06:04:20;;;;;;;;;;;;;;;;;;4996867;28;7229;-54
2023/03/05 06:06:45;;;;;;;;;;;;;;;;;;4996569;28;7612;-54
2023/03/05 06:09:11;;;;;;;;;;;;;;;;;;4996261;28;7261;-54
2023/03/05 06:11:38;;;;;;;;;;;;;;;;;;4996489;28;7124;-50
2023/03/05 06:14:03;;;;;;;;;;;;;;;;;;5007032;28;7269;-53
2023/03/05 06:16:29;;;;;;;;;;;;;;;;;;5015959;28;7258;-53
2023/03/05 06:19:13;;;;;;;;;;;;;;;;;;5015780;28;7086;-58
2023/03/05 06:21:40;;;;;;;;;;;;;;;;;;5015888;28;6944;-60
2023/03/05 06:24:05;;;;;;;;;;;;;;;;;;5015779;28;7057;-58
2023/03/05 06:26:31;;;;;;;;;;;;;;;;;;5014838;28;6909;-60
2023/03/05 06:28:58;;;;;;;;;;;;;;;;;;5016046;28;6819;-58
2023/03/05 06:31:39;;;;;;;;;;;;;;;;;;5015385;28;7283;-59
2023/03/05 06:34:04;;;;;;;;;;;;;;;;;;5015555;28;7194;-59
2023/03/05 06:36:30;;;;;;;;;;;;;;;;;;5015617;28;7038;-58
2023/03/05 06:38:56;;;;;;;;;;;;;;;;;;5015457;28;7609;-59
2023/03/05 06:41:41;;;;;;;;;;;;;;;;;;5015256;28;6809;-59
2023/03/05 06:44:06;;;;;;;;;;;;;;;;;;5015159;28;7029;-59
2023/03/05 06:46:33;;;;;;;;;;;;;;;;;;5016094;28;7142;-59
2023/03/05 06:49:00;;;;;;;;;;;;;;;;;;5015505;28;7384;-59
2023/03/05 06:51:28;;;;;;;;;;;;;;;;;;5015052;28;7019;-59
2023/03/05 06:53:55;;;;;;;;;;;;;;;;;;5014488;28;6961;-59
2023/03/05 06:56:21;;;;;;;;;;;;;;;;;;5010941;28;7486;-59
2023/03/05 06:59:05;;;;;;;;;;;;;;;;;;5001072;28;7162;-59
2023/03/05 07:01:31;;;;;;;;;;;;;;;;;;4999923;28;7051;-59
2023/03/05 07:03:59;;;;;;;;;;;;;;;;;;5015476;28;7115;-59
2023/03/05 07:06:53;;;;;;;;;;;;;;;;;;5015140;28;7154;-60
2023/03/05 07:09:18;;;;;;;;;;;;;;;;;;5014710;28;7242;-59
2023/03/05 07:11:44;;;;;;;;;;;;;;;;;;5011464;28;7048;-59
2023/03/05 07:14:09;;;;;;;;;;;;;;;;;;5013949;28;7218;-59
2023/03/05 07:16:37;;;;;;;;;;;;;;;;;;5014765;28;7208;-59
2023/03/05 07:19:04;;;;;;;;;;;;;;;;;;5014990;28;7193;-59
2023/03/05 07:22:02;;;;;;;;;;;;;;;;;;5014538;28;6973;-59
2023/03/05 07:24:28;;;;;;;;;;;;;;;;;;5009851;28;7188;-58
2023/03/05 07:26:56;;;;;;;;;;;;;;;;;;4999022;28;7270;-59
2023/03/05 07:29:28;;;;;;;;;;;;;;;;;;5014074;28;7173;-59
2023/03/05 07:31:54;;;;;;;;;;;;;;;;;;5014462;28;7197;-59
2023/03/05 07:34:48;;;;;;;;;;;;;;;;;;5015263;28;7364;-59
2023/03/05 07:37:14;;;;;;;;;;;;;;;;;;5015317;28;7145;-59
2023/03/05 07:39:55;;;;;;;;;;;;;;;;;;5015655;28;6981;-61
2023/03/05 07:42:20;;;;;;;;;;;;;;;;;;5015562;28;7088;-59
2023/03/05 07:44:46;;;;;;;;;;;;;;;;;;5014830;28;7178;-59
2023/03/05 07:47:12;;;;;;;;;;;;;;;;;;5014848;28;7021;-59
2023/03/05 07:49:40;;;;;;;;;;;;;;;;;;5014700;28;7372;-59
2023/03/05 07:58:12;;;;;;;;;;;;;;;;;;5014478;28;6924;-58
2023/03/05 08:01:09;;;;;;;;;;;;;;;;;;5015125;28;7273;-59
2023/03/05 08:03:34;;;;;;;;;;;;;;;;;;5014585;28;8177;-59
2023/03/05 08:08:57;;;;;;;;;;;;;;;;;;5014575;28;7102;-59
2023/03/05 08:11:22;;;;;;;;;;;;;;;;;;5009146;28;7592;-59
2023/03/05 08:13:48;;;;;;;;;;;;;;;;;;5013794;28;7335;-59
2023/03/05 08:16:37;;;;;;;;;;;;;;;;;;5002659;28;7219;-59
2023/03/05 08:19:02;;;;;;;;;;;;;;;;;;4994740;28;7057;-65
2023/03/05 08:21:41;;;;;;;;;;;;;;;;;;5000016;28;6923;-65
2023/03/05 08:24:07;;;;;;;;;;;;;;;;;;5014308;28;7376;-64
2023/03/05 08:26:34;;;;;;;;;;;;;;;;;;5014163;28;7002;-64
2023/03/05 08:29:17;;;;;;;;;;;;;;;;;;5014998;28;7164;-64
2023/03/05 08:31:45;;;;;;;;;;;;;;;;;;5014339;28;7294;-64
2023/03/05 08:34:10;;;;;;;;;;;;;;;;;;5057512;22;7165;-60
2023/03/05 08:36:36;;;;;;;;;;;;;;;;;;5019460;28;7720;-59
2023/03/05 08:39:02;;;;;;;;;;;;;;;;;;5037092;28;7097;-59
2023/03/05 08:41:28;;;;;;;;;;;;;;;;;;5037761;28;7210;-59
2023/03/05 08:44:02;;;;;;;;;;;;;;;;;;5038000;28;7079;-59
2023/03/05 08:46:28;;;;;;;;;;;;;;;;;;5037563;28;7383;-59
2023/03/05 08:48:53;;;;;;;;;;;;;;;;;;5038544;28;7661;-59
2023/03/05 08:51:34;;;;;;;;;;;;;;;;;;5037457;28;7012;-59
2023/03/05 08:54:01;;;;;;;;;;;;;;;;;;5037190;28;7247;-59
2023/03/05 08:56:40;;;;;;;;;;;;;;;;;;5037338;28;7386;-59
2023/03/05 08:59:05;;;;;;;;;;;;;;;;;;5037482;28;7119;-59
2023/03/05 09:04:22;;;;;;;;;;;;;;;;;;5037437;28;6965;-59
2023/03/05 09:06:48;;;;;;;;;;;;;;;;;;5037108;28;7105;-59
2023/03/05 09:12:27;;;;;;;;;;;;;;;;;;5035538;28;6749;-59
2023/03/05 09:14:55;;;;;;;;;;;;;;;;;;5036740;28;7376;-59
2023/03/05 09:20:35;;;;;;;;;;;;;;;;;;5036640;28;6981;-59
2023/03/05 09:23:01;;;;;;;;;;;;;;;;;;5036467;28;7141;-59
2023/03/05 09:25:40;;;;;;;;;;;;;;;;;;5036648;28;7243;-59
2023/03/05 09:28:06;;;;;;;;;;;;;;;;;;5036735;28;7222;-59
2023/03/05 09:30:52;;;;;;;;;;;;;;;;;;5027570;28;7109;-59
2023/03/05 09:33:17;;;;;;;;;;;;;;;;;;5020688;28;7074;-59
2023/03/05 09:35:43;;;;;;;;;;;;;;;;;;5035801;28;7171;-59
2023/03/05 09:38:18;;;;;;;;;;;;;;;;;;5036595;28;6941;-60
2023/03/05 09:40:55;;;;;;;;;;;;;;;;;;5036464;28;7222;-59
2023/03/05 09:43:25;;;;;;;;;;;;;;;;;;5036967;28;7219;-59
2023/03/05 09:48:51;;;;;;;;;;;;;;;;;;5033841;28;6901;-59
2023/03/05 09:51:48;;;;;;;;;;;;;;;;;;5035819;28;6956;-59
2023/03/05 09:54:13;;;;;;;;;;;;;;;;;;5016109;28;7180;-59
2023/03/05 09:56:42;;;;;;;;;;;;;;;;;;5016359;28;7045;-59
2023/03/05 10:05:36;;;;;;;;;;;;;;;;;;5016040;28;6920;-59
2023/03/05 10:08:04;;;;;;;;;;;;;;;;;;5015873;28;7193;-59
2023/03/05 10:10:39;;;;;;;;;;;;;;;;;;5015952;28;7473;-59
2023/03/05 10:13:16;;;;;;;;;;;;;;;;;;5034880;28;7197;-59
2023/03/05 10:15:43;;;;;;;;;;;;;;;;;;5035653;28;7377;-59
2023/03/05 10:18:18;;;;;;;;;;;;;;;;;;5035852;28;7381;-59
2023/03/05 10:20:59;;;;;;;;;;;;;;;;;;5035372;28;6930;-59
2023/03/05 10:23:30;;;;;;;;;;;;;;;;;;5035578;28;7146;-59
2023/03/05 10:26:14;;;;;;;;;;;;;;;;;;5018477;28;8433;-59
2023/03/05 10:28:48;;;;;;;;;;;;;;;;;;5035445;28;6954;-59
2023/03/05 10:31:33;;;;;;;;;;;;;;;;;;5035488;28;7131;-59
2023/03/05 10:34:11;;;;;;;;;;;;;;;;;;5035585;28;7224;-59
2023/03/05 10:36:40;;;;;;;;;;;;;;;;;;5035055;28;7099;-59
2023/03/05 10:39:47;;;;;;;;;;;;;;;;;;5035382;28;6937;-59
2023/03/05 10:42:21;;;;;;;;;;;;;;;;;;5034190;28;7105;-59
2023/03/05 10:44:56;;;;;;;;;;;;;;;;;;5035327;28;7487;-60
2023/03/05 10:47:29;;;;;;;;;;;;;;;;;;5035218;28;7435;-59
2023/03/05 10:49:57;;;;;;;;;;;;;;;;;;5035182;28;7548;-59
2023/03/05 10:55:32;;;;;;;;;;;;;;;;;;5034643;28;6966;-59
2023/03/05 10:58:16;;;;;;;;;;;;;;;;;;5034674;28;7185;-59
2023/03/05 11:01:00;;;;;;;;;;;;;;;;;;5035224;28;6967;-59
2023/03/05 11:03:44;;;;;;;;;;;;;;;;;;5034791;28;7380;-59
2023/03/05 11:06:28;;;;;;;;;;;;;;;;;;5034599;28;8001;-59
2023/03/05 11:08:53;;;;;;;;;;;;;;;;;;5035425;28;7120;-59
2023/03/05 11:11:20;;;;;;;;;;;;;;;;;;5034837;28;7308;-59
2023/03/05 11:13:54;;;;;;;;;;;;;;;;;;5067024;22;6960;-63
2023/03/05 11:19:49;;;;;;;;;;;;;;;;;;5014780;28;6927;-65
2023/03/05 11:22:20;;;;;;;;;;;;;;;;;;5014768;28;6784;-65
2023/03/05 11:25:03;;;;;;;;;;;;;;;;;;5014998;28;7042;-65
2023/03/05 11:30:34;;;;;;;;;;;;;;;;;;5015214;28;6983;-65
2023/03/05 11:33:09;;;;;;;;;;;;;;;;;;5014779;28;7589;-65
2023/03/05 11:35:35;;;;;;;;;;;;;;;;;;5014928;28;7056;-65
2023/03/05 11:38:02;;;;;;;;;;;;;;;;;;5014623;28;7169;-65
2023/03/05 11:40:29;;;;;;;;;;;;;;;;;;5014823;28;7155;-60
2023/03/05 11:42:57;;;;;;;;;;;;;;;;;;5014442;28;7288;-60
2023/03/05 11:45:38;;;;;;;;;;;;;;;;;;5025160;28;7202;-60
2023/03/05 11:48:13;;;;;;;;;;;;;;;;;;5034515;28;7271;-60
2023/03/05 11:50:42;;;;;;;;;;;;;;;;;;5034481;28;6921;-59
2023/03/05 11:53:28;;;;;;;;;;;;;;;;;;5034416;28;6963;-59
2023/03/05 11:56:14;;;;;;;;;;;;;;;;;;5034421;28;7046;-60
2023/03/05 11:59:22;;;;;;;;;;;;;;;;;;5034528;28;6964;-60
2023/03/05 12:05:21;;;;;;;;;;;;;;;;;;5034225;28;6691;-59
2023/03/05 12:07:50;;;;;;;;;;;;;;;;;;5035268;28;6953;-60
2023/03/05 12:10:17;;;;;;;;;;;;;;;;;;5038146;28;7201;-59
2023/03/05 12:12:43;;;;;;;;;;;;;;;;;;5021786;28;6858;-60
2023/03/05 12:15:11;;;;;;;;;;;;;;;;;;5014701;28;7050;-60
2023/03/05 12:17:46;;;;;;;;;;;;;;;;;;5018235;28;7204;-59
2023/03/05 12:20:32;;;;;;;;;;;;;;;;;;5026318;28;8058;-59
2023/03/05 12:22:58;;;;;;;;;;;;;;;;;;5037931;28;7480;-59
2023/03/05 12:25:27;;;;;;;;;;;;;;;;;;5037945;28;7171;-59
2023/03/05 12:33:58;;;;;;;;;;;;;;;;;;5037724;28;6678;-60
2023/03/05 12:39:59;;;;;;;;;;;;;;;;;;5037718;28;6969;-59
2023/03/05 12:45:29;;;;;;;;;;;;;;;;;;5037282;28;6940;-65
2023/03/05 12:48:09;;;;;;;;;;;;;;;;;;5037612;28;7232;-65
2023/03/05 12:50:37;;;;;;;;;;;;;;;;;;5037002;28;7292;-65
2023/03/05 12:53:03;;;;;;;;;;;;;;;;;;5037394;28;7143;-65
2023/03/05 12:55:48;;;;;;;;;;;;;;;;;;5037328;28;7140;-65
2023/03/05 12:58:16;;;;;;;;;;;;;;;;;;5037105;28;7213;-65
2023/03/05 13:00:58;;;;;;;;;;;;;;;;;;5037122;28;7406;-65
2023/03/05 13:03:29;;;;;;;;;;;;;;;;;;5037192;28;7204;-65
2023/03/05 13:05:59;;;;;;;;;;;;;;;;;;5036841;28;7209;-65
2023/03/05 13:08:34;;;;;;;;;;;;;;;;;;5037188;28;7258;-65
2023/03/05 13:20:41;;;;;;;;;;;;;;;;;;5028897;28;6996;-59
2023/03/05 13:23:17;;;;;;;;;;;;;;;;;;5029076;28;7380;-59
2023/03/05 13:29:06;;;;;;;;;;;;;;;;;;5025623;28;6940;-60
2023/03/05 13:31:34;;;;;;;;;;;;;;;;;;5025125;28;6964;-59
2023/03/05 13:43:19;;;;;;;;;;;;;;;;;;5016258;28;6698;-59
2023/03/05 13:45:52;;;;;;;;;;;;;;;;;;5016181;28;7006;-59
2023/03/05 13:48:18;;;;;;;;;;;;;;;;;;5016466;28;7494;-59
2023/03/05 13:50:44;;;;;;;;;;;;;;;;;;5016453;28;7403;-59
2023/03/05 13:53:36;;;;;;;;;;;;;;;;;;5016158;28;7154;-60
2023/03/05 13:56:03;;;;;;;;;;;;;;;;;;5013736;28;7178;-59
2023/03/05 14:01:37;;;;;;;;;;;;;;;;;;5016387;28;6899;-59
2023/03/05 14:13:35;;;;;;;;;;;;;;;;;;5015734;28;7029;-60
2023/03/05 14:16:04;;;;;;;;;;;;;;;;;;4976739;28;7209;-60
2023/03/05 14:18:32;;;;;;;;;;;;;;;;;;4976614;28;7112;-65
2023/03/05 14:21:00;;;;;;;;;;;;;;;;;;4976911;28;7068;-64
2023/03/05 14:23:33;;;;;;;;;;;;;;;;;;4976478;28;7440;-65
2023/03/05 14:26:34;;;;;;;;;;;;;;;;;;4976858;28;7376;-65
2023/03/05 14:29:02;;;;;;;;;;;;;;;;;;4976809;28;7381;-65
2023/03/05 14:31:33;;;;;;;;;;;;;;;;;;4976637;28;7541;-65
2023/03/05 14:34:17;;;;;;;;;;;;;;;;;;4976670;28;7129;-65
2023/03/05 14:36:48;;;;;;;;;;;;;;;;;;4976570;28;7052;-65
2023/03/05 14:42:54;;;;;;;;;;;;;;;;;;4976565;28;6675;-65
2023/03/05 14:45:21;;;;;;;;;;;;;;;;;;4976390;28;7597;-65
2023/03/05 14:47:49;;;;;;;;;;;;;;;;;;4976477;28;7043;-65
2023/03/05 14:50:23;;;;;;;;;;;;;;;;;;4976361;28;7403;-65
2023/03/05 14:55:55;;;;;;;;;;;;;;;;;;4976121;28;6689;-65
2023/03/05 15:01:58;;;;;;;;;;;;;;;;;;4981990;28;6737;-65
2023/03/05 15:04:24;;;;;;;;;;;;;;;;;;4976156;28;7028;-64
2023/03/05 15:06:52;;;;;;;;;;;;;;;;;;4976185;28;7483;-64
2023/03/05 15:09:18;;;;;;;;;;;;;;;;;;4975966;28;6972;-64
2023/03/05 15:14:57;;;;;;;;;;;;;;;;;;4992901;28;6768;-64
2023/03/05 15:17:30;;;;;;;;;;;;;;;;;;5015019;28;7540;-64
2023/03/05 15:19:55;;;;;;;;;;;;;;;;;;5015128;28;7406;-65
2023/03/05 15:22:53;;;;;;;;;;;;;;;;;;5014977;28;6924;-65
2023/03/05 15:25:21;;;;;;;;;;;;;;;;;;5014734;28;7170;-64
2023/03/05 15:27:49;;;;;;;;;;;;;;;;;;5015136;28;8271;-65
2023/03/05 15:30:22;;;;;;;;;;;;;;;;;;5014816;28;7110;-65
2023/03/05 15:32:48;;;;;;;;;;;;;;;;;;5014958;28;7186;-64
2023/03/05 15:35:23;;;;;;;;;;;;;;;;;;5014922;28;7208;-64
2023/03/05 15:37:49;;;;;;;;;;;;;;;;;;5053703;23;7074;-60
2023/03/05 15:40:15;;;;;;;;;;;;;;;;;;5014628;28;7188;-59
2023/03/05 15:42:53;;;;;;;;;;;;;;;;;;5015951;28;6937;-59
2023/03/05 15:45:44;;;;;;;;;;;;;;;;;;5019116;28;7282;-59
2023/03/05 15:48:11;;;;;;;;;;;;;;;;;;5018948;28;6970;-59
2023/03/05 15:53:39;;;;;;;;;;;;;;;;;;5018432;28;6710;-59
2023/03/05 15:56:05;;;;;;;;;;;;;;;;;;5018667;28;7341;-59
2023/03/05 15:58:30;;;;;;;;;;;;;;;;;;5018722;28;7097;-64
2023/03/05 16:00:58;;;;;;;;;;;;;;;;;;5018034;28;7180;-65
2023/03/05 16:03:24;;;;;;;;;;;;;;;;;;5018082;28;6937;-65
2023/03/05 16:05:54;;;;;;;;;;;;;;;;;;5018529;28;7095;-64
2023/03/05 16:08:20;;;;;;;;;;;;;;;;;;5018524;28;7090;-64
2023/03/05 16:10:45;;;;;;;;;;;;;;;;;;5019187;28;7010;-59
2023/03/05 16:13:15;;;;;;;;;;;;;;;;;;5018318;28;7372;-59
2023/03/05 16:15:42;;;;;;;;;;;;;;;;;;5018517;28;7425;-64
2023/03/05 16:21:12;;;;;;;;;;;;;;;;;;5017957;28;6677;-64
2023/03/05 16:23:38;;;;;;;;;;;;;;;;;;5018230;28;6936;-59
2023/03/05 16:26:14;;;;;;;;;;;;;;;;;;5018081;28;7562;-59
2023/03/05 16:28:40;;;;;;;;;;;;;;;;;;5018085;28;7417;-59
2023/03/05 16:31:05;;;;;;;;;;;;;;;;;;5017685;28;7226;-59
2023/03/05 16:33:31;;;;;;;;;;;;;;;;;;5018048;28;7109;-59
2023/03/05 16:36:17;;;;;;;;;;;;;;;;;;5017959;28;7132;-59
2023/03/05 16:38:43;;;;;;;;;;;;;;;;;;5017199;28;7031;-59
2023/03/05 16:41:31;;;;;;;;;;;;;;;;;;5017911;28;7194;-59
2023/03/05 16:43:57;;;;;;;;;;;;;;;;;;5018129;28;7367;-59
2023/03/05 16:46:27;;;;;;;;;;;;;;;;;;5018356;28;6911;-59
2023/03/05 16:48:53;;;;;;;;;;;;;;;;;;5018305;28;7015;-59
2023/03/05 16:54:21;;;;;;;;;;;;;;;;;;5016184;28;6952;-59
2023/03/05 16:57:02;;;;;;;;;;;;;;;;;;5017623;28;7120;-59
2023/03/05 16:59:28;;;;;;;;;;;;;;;;;;5017215;28;7768;-59
2023/03/05 17:01:54;;;;;;;;;;;;;;;;;;5017451;28;6937;-59
2023/03/05 17:04:19;;;;;;;;;;;;;;;;;;5017524;28;6881;-59
2023/03/05 17:07:03;;;;;;;;;;;;;;;;;;5017416;28;7127;-59
2023/03/05 17:09:29;;;;;;;;;;;;;;;;;;5017326;28;7053;-59
2023/03/05 17:11:54;;;;;;;;;;;;;;;;;;5017046;28;7318;-59
2023/03/05 17:14:21;;;;;;;;;;;;;;;;;;5016884;28;7231;-59
2023/03/05 17:16:46;;;;;;;;;;;;;;;;;;5017220;28;7059;-59
2023/03/05 17:19:13;;;;;;;;;;;;;;;;;;5017124;28;7109;-59
2023/03/05 17:21:51;;;;;;;;;;;;;;;;;;5016862;28;8491;-59
2023/03/05 17:24:18;;;;;;;;;;;;;;;;;;5017515;28;7072;-59
2023/03/05 17:26:45;;;;;;;;;;;;;;;;;;5017158;28;7219;-59
2023/03/05 17:29:18;;;;;;;;;;;;;;;;;;5003634;28;6823;-65
2023/03/05 17:31:43;;;;;;;;;;;;;;;;;;5011357;28;7047;-64
2023/03/05 17:34:09;;;;;;;;;;;;;;;;;;5015020;28;7288;-64
2023/03/05 17:36:49;;;;;;;;;;;;;;;;;;4996138;28;6865;-64
2023/03/05 17:39:50;;;;;;;;;;;;;;;;;;5008786;28;7010;-64
2023/03/05 17:42:19;;;;;;;;;;;;;;;;;;5008709;28;6986;-64
2023/03/05 17:44:52;;;;;;;;;;;;;;;;;;5015744;28;7152;-64
2023/03/05 17:47:18;;;;;;;;;;;;;;;;;;5015809;28;7281;-64
2023/03/05 17:52:51;;;;;;;;;;;;;;;;;;5015696;28;6752;-64
2023/03/05 17:55:17;;;;;;;;;;;;;;;;;;5015508;28;6940;-64
2023/03/05 17:57:50;;;;;;;;;;;;;;;;;;4999110;28;7188;-64
2023/03/05 18:03:14;;;;;;;;;;;;;;;;;;5004177;28;6804;-63
2023/03/05 18:05:40;;;;;;;;;;;;;;;;;;5035632;28;7007;-63
2023/03/05 18:08:27;;;;;;;;;;;;;;;;;;5036003;28;7283;-63
2023/03/05 18:10:53;;;;;;;;;;;;;;;;;;4999036;28;7439;-63
2023/03/05 18:13:35;;;;;;;;;;;;;;;;;;4996153;28;7125;-63
2023/03/05 18:16:00;;;;;;;;;;;;;;;;;;4996236;28;7062;-63
2023/03/05 18:18:41;;;;;;;;;;;;;;;;;;4997631;28;7038;-63
2023/03/05 18:21:06;;;;;;;;;;;;;;;;;;4996270;28;7256;-63
2023/03/05 18:23:32;;;;;;;;;;;;;;;;;;4995815;28;7036;-63
2023/03/05 18:25:59;;;;;;;;;;;;;;;;;;4995779;28;6964;-63
2023/03/05 18:28:25;;;;;;;;;;;;;;;;;;4995087;28;7011;-63
2023/03/05 18:30:51;;;;;;;;;;;;;;;;;;5011906;28;6944;-63
2023/03/05 18:33:22;;;;;;;;;;;;;;;;;;5015318;28;6943;-63
2023/03/05 18:39:11;;;;;;;;;;;;;;;;;;4970452;28;7152;-64
2023/03/05 18:41:37;;;;;;;;;;;;;;;;;;4955595;28;7236;-64
2023/03/05 18:47:05;;;;;;;;;;;;;;;;;;4954934;28;6964;-64
2023/03/05 18:49:30;;;;;;;;;;;;;;;;;;4955116;28;7352;-64
2023/03/05 18:52:19;;;;;;;;;;;;;;;;;;4955905;28;7172;-64
2023/03/05 18:54:45;;;;;;;;;;;;;;;;;;4955168;28;7187;-64
2023/03/05 18:57:19;;;;;;;;;;;;;;;;;;4955047;28;7381;-64
2023/03/05 18:59:45;;;;;;;;;;;;;;;;;;4955223;28;7168;-64
2023/03/05 19:02:24;;;;;;;;;;;;;;;;;;4954883;28;7006;-64
2023/03/05 19:04:50;;;;;;;;;;;;;;;;;;4954922;28;7025;-64
2023/03/05 19:07:15;;;;;;;;;;;;;;;;;;4954649;28;7301;-64
2023/03/05 19:09:53;;;;;;;;;;;;;;;;;;4979071;28;6913;-64
2023/03/05 19:12:23;;;;;;;;;;;;;;;;;;5014725;28;6926;-64
2023/03/05 19:14:49;;;;;;;;;;;;;;;;;;5015544;28;7409;-64
2023/03/05 19:17:16;;;;;;;;;;;;;;;;;;5015033;28;7030;-64
2023/03/05 19:19:41;;;;;;;;;;;;;;;;;;5014693;28;7257;-64
2023/03/05 19:22:31;;;;;;;;;;;;;;;;;;5014989;28;7060;-64
2023/03/05 19:24:57;;;;;;;;;;;;;;;;;;5014976;28;7262;-64
2023/03/05 19:27:33;;;;;;;;;;;;;;;;;;5015106;28;6887;-64
2023/03/05 19:29:59;;;;;;;;;;;;;;;;;;5014988;28;7226;-64
2023/03/05 19:32:24;;;;;;;;;;;;;;;;;;5014778;28;7212;-64
2023/03/05 19:34:53;;;;;;;;;;;;;;;;;;5014886;28;6972;-64
2023/03/05 19:37:25;;;;;;;;;;;;;;;;;;5014814;28;7056;-64
2023/03/05 19:39:50;;;;;;;;;;;;;;;;;;5014538;28;6991;-64
2023/03/05 19:42:31;;;;;;;;;;;;;;;;;;4997133;28;7162;-64
2023/03/05 19:51:06;;;;;;;;;;;;;;;;;;5014615;28;6681;-64
2023/03/05 19:54:06;;;;;;;;;;;;;;;;;;5014730;28;7170;-64
2023/03/05 19:56:32;;;;;;;;;;;;;;;;;;5014784;28;7140;-64
2023/03/05 20:02:00;;;;;;;;;;;;;;;;;;5014381;28;6700;-64
2023/03/05 20:04:26;;;;;;;;;;;;;;;;;;5014611;28;7199;-64
2023/03/05 20:09:55;;;;;;;;;;;;;;;;;;5014418;28;6682;-64
2023/03/05 20:12:21;;;;;;;;;;;;;;;;;;5014276;28;7355;-64
2023/03/05 20:14:47;;;;;;;;;;;;;;;;;;5014536;28;7027;-64
2023/03/05 20:17:29;;;;;;;;;;;;;;;;;;5014549;28;7135;-64
2023/03/05 20:19:57;;;;;;;;;;;;;;;;;;5014163;28;8182;-64
2023/03/05 20:22:23;;;;;;;;;;;;;;;;;;5014668;28;7142;-64
2023/03/05 20:24:49;;;;;;;;;;;;;;;;;;5014329;28;7399;-64
2023/03/05 20:27:14;;;;;;;;;;;;;;;;;;5014542;28;6961;-64
2023/03/05 20:29:40;;;;;;;;;;;;;;;;;;5016530;28;7888;-64
2023/03/05 20:35:12;;;;;;;;;;;;;;;;;;5017724;28;6693;-64
2023/03/05 20:37:58;;;;;;;;;;;;;;;;;;5017815;28;6903;-64
2023/03/05 20:40:24;;;;;;;;;;;;;;;;;;4980647;28;7198;-64
2023/03/05 20:42:51;;;;;;;;;;;;;;;;;;4997892;28;6928;-64
2023/03/05 20:45:17;;;;;;;;;;;;;;;;;;4998179;28;7181;-64
2023/03/05 20:51:15;;;;;;;;;;;;;;;;;;4998083;28;6920;-64
2023/03/05 20:53:41;;;;;;;;;;;;;;;;;;5003601;28;7219;-64